Time;durP1;ratioP1;P1;durP2;ratioP2;P2;SDS_P1;SDS_P2;PMS_P1;PMS_P2;Temp;Humidity;BMP_temperature;BMP_pressure;BME280_temperature;BME280_humidity;BME280_pressure;Samples;Min_cycle;Max_cycle;Signal;HPM_P1;HPM_P2
2022/05/11 00:00:00;;;;;;;8.70;4.40;;;14.50;99.90;;;;;;5097629;27;20027;-80
2022/05/11 00:02:26;;;;;;;5.60;4.35;;;14.40;99.90;;;;;;5114664;27;20084;-80
2022/05/11 00:04:51;;;;;;;6.80;4.60;;;14.40;99.90;;;;;;5113294;27;20039;-80
2022/05/11 00:07:17;;;;;;;5.90;4.20;;;14.40;99.90;;;;;;5064763;27;20069;-80
2022/05/11 00:09:43;;;;;;;6.78;4.45;;;14.40;99.90;;;;;;5115957;27;20047;-80
2022/05/11 00:12:09;;;;;;;5.85;4.10;;;14.40;99.90;;;;;;5071694;27;20071;-80
2022/05/11 00:14:35;;;;;;;7.07;4.20;;;14.40;99.90;;;;;;5071754;27;20039;-80
2022/05/11 00:17:01;;;;;;;6.65;3.95;;;14.50;99.90;;;;;;5098176;27;20034;-80
2022/05/11 00:19:27;;;;;;;7.53;3.60;;;14.50;99.90;;;;;;5115828;27;20041;-80
2022/05/11 00:21:53;;;;;;;8.93;3.83;;;14.50;99.90;;;;;;5097035;27;20038;-80
2022/05/11 00:24:19;;;;;;;7.88;3.80;;;14.50;99.90;;;;;;5111818;27;20142;-80
2022/05/11 00:26:45;;;;;;;6.63;3.90;;;14.50;99.90;;;;;;5096929;27;20039;-80
2022/05/11 00:29:11;;;;;;;7.57;3.92;;;14.40;99.90;;;;;;5097465;27;20039;-80
2022/05/11 00:31:37;;;;;;;6.95;3.97;;;14.40;99.90;;;;;;5096071;27;20027;-79
2022/05/11 00:34:03;;;;;;;5.72;4.18;;;14.40;99.90;;;;;;5080052;27;20117;-80
2022/05/11 00:36:29;;;;;;;8.10;3.75;;;14.40;99.90;;;;;;5064156;27;20122;-80
2022/05/11 00:38:54;;;;;;;4.93;3.58;;;14.40;99.90;;;;;;5114355;27;20050;-80
2022/05/11 00:41:20;;;;;;;5.03;3.65;;;14.40;99.90;;;;;;5094335;27;20039;-80
2022/05/11 00:43:55;;;;;;;5.65;4.03;;;14.40;99.90;;;;;;5073428;27;20068;-80
2022/05/11 00:46:29;;;;;;;5.60;4.17;;;14.40;99.90;;;;;;5114494;27;20072;-80
2022/05/11 00:51:51;;;;;;;6.18;3.70;;;14.30;99.90;;;;;;5111478;27;20088;-79
2022/05/11 00:54:20;;;;;;;5.90;3.78;;;14.30;99.90;;;;;;5113380;27;20035;-81
2022/05/11 00:56:53;;;;;;;9.48;3.83;;;14.30;99.90;;;;;;5112901;27;20051;-80
2022/05/11 00:59:24;;;;;;;6.35;4.00;;;14.30;99.90;;;;;;5112650;27;20047;-80
2022/05/11 01:01:51;;;;;;;6.95;4.03;;;14.30;99.90;;;;;;5112095;27;20059;-80
2022/05/11 01:04:19;;;;;;;5.93;3.65;;;14.30;99.90;;;;;;5096124;27;20042;-80
2022/05/11 01:06:45;;;;;;;7.25;3.65;;;14.30;99.90;;;;;;5095520;27;20388;-79
2022/05/11 01:09:12;;;;;;;5.93;3.75;;;14.30;99.90;;;;;;5078206;27;20114;-80
2022/05/11 01:11:49;;;;;;;8.30;4.28;;;14.30;99.90;;;;;;5094663;27;20047;-79
2022/05/11 01:14:19;;;;;;;6.82;3.97;;;14.30;99.90;;;;;;5111782;27;20116;-80
2022/05/11 01:16:46;;;;;;;6.55;3.83;;;14.30;99.90;;;;;;5113811;27;20035;-80
2022/05/11 01:19:22;;;;;;;7.40;4.13;;;14.30;99.90;;;;;;5095635;27;20107;-80
2022/05/11 01:21:51;;;;;;;;;;;14.30;99.90;;;;;;5094950;27;20043;-79
2022/05/11 01:24:33;;;;;;;5.88;4.00;;;14.20;99.90;;;;;;5095635;27;20001;-79
2022/05/11 01:27:18;;;;;;;9.45;4.05;;;14.20;99.90;;;;;;5111588;27;20074;-80
2022/05/11 01:29:44;;;;;;;8.60;4.10;;;14.20;99.90;;;;;;5095865;27;20081;-80
2022/05/11 01:32:10;;;;;;;5.60;3.88;;;14.10;99.90;;;;;;5111348;27;20483;-80
2022/05/11 01:34:35;;;;;;;6.57;4.20;;;14.20;99.90;;;;;;5079218;27;20039;-80
2022/05/11 01:37:01;;;;;;;7.45;4.32;;;14.10;99.90;;;;;;5096530;27;20035;-80
2022/05/11 01:39:27;;;;;;;6.80;4.07;;;14.20;99.90;;;;;;5077922;27;20493;-80
2022/05/11 01:41:54;;;;;;;7.80;4.10;;;14.20;99.90;;;;;;5061184;27;20054;-80
2022/05/11 01:44:21;;;;;;;8.70;4.68;;;14.20;99.90;;;;;;5068018;27;20040;-80
2022/05/11 01:46:54;;;;;;;6.22;4.10;;;14.20;99.90;;;;;;5093707;27;20507;-80
2022/05/11 01:49:22;;;;;;;9.68;4.60;;;14.20;99.90;;;;;;5112852;27;20145;-80
2022/05/11 01:51:48;;;;;;;8.20;3.90;;;14.20;99.90;;;;;;5093789;27;20112;-80
2022/05/11 01:54:15;;;;;;;6.47;4.03;;;14.20;99.90;;;;;;5096624;27;20054;-80
2022/05/11 01:56:41;;;;;;;5.70;3.92;;;14.20;99.90;;;;;;5112580;27;20050;-80
2022/05/11 01:59:07;;;;;;;7.93;4.30;;;14.20;99.90;;;;;;5096128;27;20401;-80
2022/05/11 02:01:35;;;;;;;8.20;4.25;;;14.20;99.90;;;;;;5110303;27;20410;-80
2022/05/11 02:04:00;;;;;;;9.20;3.97;;;14.20;99.90;;;;;;5093438;27;20039;-80
2022/05/11 02:09:12;;;;;;;5.95;4.13;;;14.20;99.90;;;;;;5111274;27;20095;-80
2022/05/11 02:11:39;;;;;;;5.82;3.72;;;14.10;99.90;;;;;;5109509;27;20047;-80
2022/05/11 02:14:05;;;;;;;7.35;4.07;;;14.10;99.90;;;;;;5083994;27;20492;-80
2022/05/11 02:16:32;;;;;;;7.40;3.60;;;14.20;99.90;;;;;;5094827;27;20088;-79
2022/05/11 02:18:58;;;;;;;4.88;3.45;;;14.20;99.90;;;;;;5111610;27;20066;-80
2022/05/11 02:21:24;;;;;;;6.55;3.47;;;14.20;99.90;;;;;;5059957;27;20780;-80
2022/05/11 02:23:51;;;;;;;6.72;3.40;;;14.20;99.90;;;;;;5091842;27;20043;-80
2022/05/11 02:26:19;;;;;;;5.60;3.78;;;14.20;99.90;;;;;;5081383;27;20090;-80
2022/05/11 02:28:47;;;;;;;10.27;3.50;;;14.20;99.90;;;;;;5110878;27;20691;-80
2022/05/11 02:31:13;;;;;;;6.80;3.53;;;14.10;99.90;;;;;;5094693;27;20412;-80
2022/05/11 02:33:38;;;;;;;8.77;3.50;;;14.10;99.90;;;;;;5092919;27;20046;-80
2022/05/11 02:36:04;;;;;;;8.20;3.38;;;14.10;99.90;;;;;;5111954;27;20130;-79
2022/05/11 02:38:35;;;;;;;6.68;3.70;;;14.20;99.90;;;;;;5069070;27;20104;-80
2022/05/11 02:41:02;;;;;;;7.43;3.30;;;14.10;99.90;;;;;;5093106;27;20032;-79
2022/05/11 02:43:28;;;;;;;8.20;3.28;;;14.10;99.90;;;;;;5094538;28;20076;-80
2022/05/11 02:45:54;;;;;;;8.18;3.50;;;14.10;99.90;;;;;;5111269;27;20031;-80
2022/05/11 02:48:23;;;;;;;7.13;3.72;;;14.10;99.90;;;;;;5075645;28;20030;-79
2022/05/11 02:50:57;;;;;;;8.60;3.50;;;14.10;99.90;;;;;;5110385;28;20103;-80
2022/05/11 02:53:25;;;;;;;7.82;3.92;;;14.20;99.90;;;;;;5088127;28;20035;-80
2022/05/11 02:55:52;;;;;;;6.00;3.50;;;14.20;99.90;;;;;;5091667;28;20104;-80
2022/05/11 02:58:20;;;;;;;7.93;3.35;;;14.20;99.90;;;;;;5093587;27;20096;-80
2022/05/11 03:00:49;;;;;;;7.05;3.30;;;14.10;99.90;;;;;;5112545;27;20075;-80
2022/05/11 03:03:16;;;;;;;7.05;3.03;;;14.10;99.90;;;;;;5098199;27;20042;-80
2022/05/11 03:05:43;;;;;;;5.88;2.80;;;14.20;99.90;;;;;;5097769;27;20348;-80
2022/05/11 03:08:09;;;;;;;5.68;3.20;;;14.20;99.90;;;;;;5098837;27;20035;-80
2022/05/11 03:10:36;;;;;;;8.75;3.30;;;14.20;99.90;;;;;;5081550;27;20039;-80
2022/05/11 03:13:03;;;;;;;7.88;3.45;;;14.20;99.90;;;;;;5114231;27;21364;-80
2022/05/11 03:15:30;;;;;;;8.02;3.40;;;14.20;99.90;;;;;;5114122;27;20058;-79
2022/05/11 03:17:55;;;;;;;6.93;2.95;;;14.20;99.90;;;;;;5082015;27;20035;-80
2022/05/11 03:20:23;;;;;;;6.90;3.00;;;14.20;99.90;;;;;;5097416;27;20132;-80
2022/05/11 03:22:53;;;;;;;6.18;3.60;;;14.20;99.90;;;;;;5081795;27;20039;-79
2022/05/11 03:25:19;;;;;;;7.13;3.53;;;14.20;99.90;;;;;;5097257;27;20675;-79
2022/05/11 03:27:45;;;;;;;7.75;3.45;;;14.20;99.90;;;;;;5098006;27;20057;-79
2022/05/11 03:30:12;;;;;;;8.95;3.72;;;14.20;99.90;;;;;;5115614;27;20103;-79
2022/05/11 03:35:22;;;;;;;7.32;3.67;;;14.20;99.90;;;;;;5100585;27;20103;-80
2022/05/11 03:37:48;;;;;;;8.68;3.75;;;14.20;99.90;;;;;;5099412;27;20114;-79
2022/05/11 03:40:14;;;;;;;7.90;3.63;;;14.20;99.90;;;;;;5074851;27;20471;-79
2022/05/11 03:42:41;;;;;;;8.98;3.42;;;14.20;99.90;;;;;;5116050;27;20023;-79
2022/05/11 03:45:17;;;;;;;7.85;4.00;;;14.20;99.90;;;;;;5098347;27;20050;-79
2022/05/11 03:47:45;;;;;;;8.23;3.72;;;14.20;99.90;;;;;;5111944;27;20347;-79
2022/05/11 03:50:10;;;;;;;12.10;3.92;;;14.20;99.90;;;;;;5094685;27;20042;-80
2022/05/11 03:52:36;;;;;;;8.88;4.00;;;14.20;99.90;;;;;;5093313;27;20087;-79
2022/05/11 03:55:04;;;;;;;10.32;4.25;;;14.20;99.90;;;;;;5099144;27;20114;-79
2022/05/11 03:57:29;;;;;;;8.63;3.97;;;14.10;99.90;;;;;;5102442;27;20035;-79
2022/05/11 03:59:55;;;;;;;9.52;4.10;;;14.20;99.90;;;;;;5083721;27;20041;-79
2022/05/11 04:02:21;;;;;;;6.78;4.10;;;14.10;99.90;;;;;;5117030;27;20039;-79
2022/05/11 04:04:46;;;;;;;11.07;4.72;;;14.10;99.90;;;;;;5106738;27;20459;-78
2022/05/11 04:07:12;;;;;;;9.73;4.80;;;14.10;99.90;;;;;;5112512;27;20031;-79
2022/05/11 04:09:39;;;;;;;10.32;4.35;;;14.10;99.90;;;;;;5086494;27;20122;-78
2022/05/11 04:12:06;;;;;;;9.07;4.60;;;14.10;99.90;;;;;;5083471;27;20054;-79
2022/05/11 04:14:32;;;;;;;9.15;4.40;;;14.10;99.90;;;;;;5085730;27;20046;-80
2022/05/11 04:16:59;;;;;;;8.10;4.43;;;14.10;99.90;;;;;;5064990;27;20538;-79
2022/05/11 04:19:29;;;;;;;11.90;5.10;;;14.10;99.90;;;;;;5098038;27;20474;-79
2022/05/11 04:21:55;;;;;;;8.88;4.78;;;14.10;99.90;;;;;;5114157;27;20035;-79
2022/05/11 04:24:22;;;;;;;11.52;4.60;;;14.10;99.90;;;;;;5096847;27;20804;-79
2022/05/11 04:26:49;;;;;;;9.95;4.90;;;14.10;99.90;;;;;;5086777;27;20054;-79
2022/05/11 04:29:15;;;;;;;7.60;4.75;;;14.10;99.90;;;;;;5115346;27;20046;-80
2022/05/11 04:31:40;;;;;;;12.65;4.93;;;14.10;99.90;;;;;;5115754;27;20058;-79
2022/05/11 04:34:06;;;;;;;9.75;4.75;;;14.10;99.90;;;;;;5070973;27;20031;-79
2022/05/11 04:36:32;;;;;;;8.75;5.13;;;14.10;99.90;;;;;;5078370;27;20032;-80
2022/05/11 04:38:58;;;;;;;8.13;4.60;;;14.20;99.90;;;;;;5096698;27;20386;-79
2022/05/11 04:41:25;;;;;;;8.88;4.30;;;14.10;99.90;;;;;;5097314;27;20039;-80
2022/05/11 04:43:52;;;;;;;8.70;4.45;;;14.20;99.90;;;;;;5114985;27;20035;-79
2022/05/11 04:46:18;;;;;;;7.43;4.53;;;14.20;99.90;;;;;;5113450;27;20085;-79
2022/05/11 04:48:45;;;;;;;11.05;4.78;;;14.10;99.90;;;;;;5074759;27;20031;-80
2022/05/11 04:51:12;;;;;;;12.00;4.53;;;14.20;99.90;;;;;;5089903;27;20050;-79
2022/05/11 04:53:37;;;;;;;11.50;5.30;;;14.20;99.90;;;;;;5095258;27;20043;-79
2022/05/11 04:56:03;;;;;;;10.88;4.90;;;14.20;99.90;;;;;;5096169;27;20065;-79
2022/05/11 04:58:30;;;;;;;10.23;4.88;;;14.20;99.90;;;;;;5097458;27;20129;-79
2022/05/11 05:00:56;;;;;;;11.18;4.97;;;14.20;99.90;;;;;;5114370;27;20066;-79
2022/05/11 05:03:21;;;;;;;7.53;4.43;;;14.20;99.90;;;;;;5112599;27;20464;-78
2022/05/11 05:05:47;;;;;;;12.88;5.55;;;14.20;99.90;;;;;;5113461;27;20070;-78
2022/05/11 05:08:13;;;;;;;10.93;5.40;;;14.20;99.90;;;;;;5096097;27;20039;-79
2022/05/11 05:10:39;;;;;;;10.88;5.30;;;14.20;99.90;;;;;;5096209;27;20045;-78
2022/05/11 05:13:11;;;;;;;11.63;5.20;;;14.30;99.90;;;;;;5094962;27;20070;-79
2022/05/11 05:15:39;;;;;;;12.88;5.72;;;14.30;99.90;;;;;;5071174;27;20058;-79
2022/05/11 05:18:06;;;;;;;7.60;5.03;;;14.30;99.90;;;;;;5113000;27;21839;-79
2022/05/11 05:20:32;;;;;;;9.07;5.03;;;14.30;99.90;;;;;;5129095;27;20039;-78
2022/05/11 05:22:58;;;;;;;11.25;6.13;;;14.40;99.90;;;;;;5095631;27;20031;-78
2022/05/11 05:25:25;;;;;;;10.32;5.13;;;14.40;99.90;;;;;;5095737;27;20479;-79
2022/05/11 05:27:52;;;;;;;11.27;5.40;;;14.40;99.90;;;;;;5110654;27;20060;-79
2022/05/11 05:33:03;;;;;;;8.68;4.20;;;14.50;99.90;;;;;;5096245;27;20042;-78
2022/05/11 05:35:29;;;;;;;13.20;5.00;;;14.50;99.90;;;;;;5112456;27;20049;-78
2022/05/11 05:37:55;;;;;;;11.02;4.70;;;14.60;99.90;;;;;;5061282;27;20121;-78
2022/05/11 05:40:21;;;;;;;9.57;4.90;;;14.70;99.90;;;;;;5111377;27;20118;-78
2022/05/11 05:42:47;;;;;;;15.23;4.70;;;14.70;99.90;;;;;;5095091;27;20118;-79
2022/05/11 05:45:13;;;;;;;7.57;4.32;;;14.70;99.90;;;;;;5094065;27;20479;-78
2022/05/11 05:47:39;;;;;;;8.93;4.28;;;14.70;99.90;;;;;;5094413;27;20038;-79
2022/05/11 05:50:05;;;;;;;8.30;4.40;;;14.80;99.90;;;;;;5111771;27;21042;-79
2022/05/11 05:52:32;;;;;;;10.65;4.53;;;14.80;99.90;;;;;;5111468;27;20035;-79
2022/05/11 05:54:58;;;;;;;10.52;4.57;;;14.80;99.90;;;;;;5096224;27;20421;-78
2022/05/11 05:57:26;;;;;;;10.00;4.07;;;14.80;99.90;;;;;;5094812;27;20041;-78
2022/05/11 05:59:52;;;;;;;9.25;4.47;;;14.80;99.90;;;;;;5111513;27;20479;-79
2022/05/11 06:02:17;;;;;;;6.15;3.40;;;14.80;99.90;;;;;;5093719;27;20436;-79
2022/05/11 06:04:46;;;;;;;8.18;4.30;;;14.80;99.90;;;;;;5111926;27;20114;-79
2022/05/11 06:07:13;;;;;;;8.55;4.03;;;14.90;99.90;;;;;;5108977;27;20050;-79
2022/05/11 06:09:39;;;;;;;11.52;3.67;;;14.90;99.90;;;;;;5094896;27;20407;-79
2022/05/11 06:12:11;;;;;;;7.13;3.63;;;14.90;99.90;;;;;;5110123;27;20073;-78
2022/05/11 06:14:37;;;;;;;12.98;3.55;;;14.90;99.90;;;;;;5095478;27;20039;-78
2022/05/11 06:17:04;;;;;;;9.43;4.25;;;14.90;99.90;;;;;;5110223;27;20042;-80
2022/05/11 06:19:30;;;;;;;7.53;3.42;;;15.00;99.90;;;;;;5093000;27;20035;-79
2022/05/11 06:21:56;;;;;;;6.50;2.95;;;15.00;99.90;;;;;;5092951;27;20045;-79
2022/05/11 06:24:22;;;;;;;11.05;3.22;;;15.10;99.90;;;;;;5093635;27;20394;-79
2022/05/11 06:26:48;;;;;;;9.15;3.50;;;15.10;99.90;;;;;;5070109;27;20042;-79
2022/05/11 06:29:14;;;;;;;8.95;3.05;;;15.20;99.90;;;;;;5110814;27;20113;-79
2022/05/11 06:31:40;;;;;;;10.48;3.38;;;15.20;99.90;;;;;;5078528;27;20047;-79
2022/05/11 06:34:07;;;;;;;10.20;3.47;;;15.30;99.90;;;;;;5109907;27;20073;-79
2022/05/11 06:36:33;;;;;;;6.57;2.63;;;15.30;99.90;;;;;;5077711;27;20042;-81
2022/05/11 06:39:00;;;;;;;7.82;2.78;;;15.40;99.90;;;;;;5112235;28;20039;-81
2022/05/11 06:41:28;;;;;;;6.50;2.47;;;15.40;99.90;;;;;;5112160;27;20042;-80
2022/05/11 06:43:54;;;;;;;6.63;2.47;;;15.50;99.90;;;;;;5096031;27;20479;-81
2022/05/11 06:46:22;;;;;;;13.18;2.85;;;15.60;99.90;;;;;;5094986;27;20103;-81
2022/05/11 06:48:48;;;;;;;9.98;2.65;;;15.70;99.90;;;;;;5110970;27;20483;-81
2022/05/11 06:51:16;;;;;;;9.88;2.40;;;15.80;99.90;;;;;;5130099;27;20039;-81
2022/05/11 06:59:20;;;;;;;5.47;1.95;;;15.90;99.90;;;;;;5130477;28;20045;-81
2022/05/11 07:01:58;;;;;;;5.72;2.15;;;15.90;99.90;;;;;;5111603;28;20055;-80
2022/05/11 07:04:25;;;;;;;8.00;1.73;;;16.00;99.90;;;;;;5111546;28;20619;-83
2022/05/11 07:06:52;;;;;;;7.20;2.10;;;16.00;99.90;;;;;;5077069;28;20074;-81
2022/05/11 07:09:18;;;;;;;9.90;2.15;;;16.10;99.90;;;;;;5076234;28;20046;-81
2022/05/11 07:14:28;;;;;;;7.38;2.00;;;16.20;99.90;;;;;;5111713;28;20043;-82
2022/05/11 07:16:55;;;;;;;7.75;1.92;;;16.20;99.90;;;;;;5095452;28;20118;-82
2022/05/11 07:19:23;;;;;;;28.02;2.65;;;16.20;99.90;;;;;;5110055;28;20441;-82
2022/05/11 07:21:52;;;;;;;6.65;1.70;;;16.30;99.90;;;;;;5093895;28;20047;-82
2022/05/11 07:24:18;;;;;;;9.52;1.75;;;16.30;99.90;;;;;;5111708;28;20414;-81
2022/05/11 07:26:45;;;;;;;6.18;1.60;;;16.40;99.90;;;;;;5111580;28;20072;-83
2022/05/11 07:29:11;;;;;;;7.93;1.75;;;16.40;99.90;;;;;;5112696;28;20070;-81
2022/05/11 07:31:37;;;;;;;7.00;1.83;;;16.40;99.90;;;;;;5094685;28;20075;-82
2022/05/11 07:34:03;;;;;;;4.65;1.50;;;16.40;99.90;;;;;;5111447;28;20092;-81
2022/05/11 07:36:29;;;;;;;7.35;1.70;;;16.40;99.90;;;;;;5112119;28;20507;-82
2022/05/11 07:38:55;;;;;;;3.95;1.63;;;16.40;99.90;;;;;;5110375;28;20062;-82
2022/05/11 07:41:21;;;;;;;6.53;1.95;;;16.50;99.90;;;;;;5111699;28;20035;-81
2022/05/11 07:43:47;;;;;;;12.32;2.00;;;16.50;99.90;;;;;;5110315;28;20050;-81
2022/05/11 07:46:12;;;;;;;16.27;1.90;;;16.50;99.90;;;;;;5115052;27;20040;-81
2022/05/11 07:48:38;;;;;;;8.52;1.63;;;16.60;99.90;;;;;;5101002;27;20491;-80
2022/05/11 07:51:04;;;;;;;8.18;1.58;;;16.60;99.90;;;;;;5099014;27;20053;-80
2022/05/11 07:53:32;;;;;;;9.40;1.55;;;16.80;99.90;;;;;;5097432;27;20114;-80
2022/05/11 08:01:38;;;;;;;13.15;2.13;;;17.70;99.90;;;;;;5025641;27;20049;-82
2022/05/11 08:04:03;;;;;;;8.07;1.52;;;17.90;99.90;;;;;;5065403;27;20037;-80
2022/05/11 08:06:29;;;;;;;15.90;2.03;;;18.30;99.90;;;;;;5114482;27;20174;-79
2022/05/11 08:08:55;;;;;;;27.30;2.90;;;18.00;99.90;;;;;;5115657;27;20043;-79
2022/05/11 08:11:21;;;;;;;4.15;1.40;;;18.20;99.90;;;;;;5116088;27;20043;-82
2022/05/11 08:13:46;;;;;;;11.35;1.83;;;18.10;99.90;;;;;;5098616;27;20502;-78
2022/05/11 08:16:12;;;;;;;8.32;1.60;;;18.10;99.40;;;;;;5065674;27;20395;-80
2022/05/11 08:18:38;;;;;;;28.83;3.00;;;18.00;99.30;;;;;;5098482;27;20487;-83
2022/05/11 08:21:03;;;;;;;26.55;3.53;;;18.00;99.40;;;;;;5114826;27;20055;-79
2022/05/11 08:23:31;;;;;;;8.40;1.85;;;18.00;99.70;;;;;;5097620;27;20490;-79
2022/05/11 08:25:57;;;;;;;11.35;1.92;;;18.20;99.80;;;;;;5103085;27;20165;-79
2022/05/11 08:28:25;;;;;;;9.90;2.20;;;18.50;99.60;;;;;;5112978;27;20061;-79
2022/05/11 08:33:38;;;;;;;19.13;2.58;;;18.80;98.10;;;;;;5115704;27;20057;-80
2022/05/11 08:36:09;;;;;;;7.22;2.08;;;19.00;98.10;;;;;;5114950;27;20414;-79
2022/05/11 08:38:41;;;;;;;10.70;1.92;;;19.30;97.10;;;;;;5113655;27;20136;-78
2022/05/11 08:41:18;;;;;;;11.90;2.00;;;19.70;97.30;;;;;;5115111;27;20039;-79
2022/05/11 08:43:45;;;;;;;4.95;1.80;;;19.90;96.60;;;;;;5097034;27;20039;-79
2022/05/11 08:46:29;;;;;;;10.57;2.53;;;20.00;96.60;;;;;;5114461;27;20122;-79
2022/05/11 08:49:12;;;;;;;43.45;3.70;;;19.90;95.30;;;;;;5095798;27;20038;-79
2022/05/11 08:51:48;;;;;;;29.70;3.08;;;19.70;95.10;;;;;;5097235;27;20039;-80
2022/05/11 08:54:24;;;;;;;8.27;1.90;;;19.50;95.10;;;;;;5091513;27;20054;-79
2022/05/11 08:56:52;;;;;;;8.65;1.65;;;19.40;95.10;;;;;;5093689;27;20043;-81
2022/05/11 08:59:23;;;;;;;19.20;1.95;;;19.20;94.70;;;;;;5079860;27;20043;-79
2022/05/11 09:01:51;;;;;;;24.85;3.25;;;19.20;95.00;;;;;;5116575;27;20042;-82
2022/05/11 09:04:22;;;;;;;38.72;3.30;;;19.30;95.40;;;;;;5091747;27;20039;-79
2022/05/11 09:06:48;;;;;;;10.98;2.25;;;19.40;95.30;;;;;;5112295;27;20037;-79
2022/05/11 09:09:16;;;;;;;8.40;2.10;;;19.70;95.60;;;;;;5114315;27;20047;-79
2022/05/11 09:11:46;;;;;;;21.05;2.00;;;19.90;94.90;;;;;;5113743;27;20047;-81
2022/05/11 09:14:39;;;;;;;13.93;1.90;;;19.80;94.40;;;;;;5131096;27;20047;-78
2022/05/11 09:17:18;;;;;;;8.35;1.58;;;19.80;94.50;;;;;;5097154;27;20050;-78
2022/05/11 09:19:57;;;;;;;4.47;1.25;;;19.90;94.30;;;;;;5097953;27;20044;-78
2022/05/11 09:22:25;;;;;;;13.68;2.30;;;19.90;92.90;;;;;;5113891;27;20037;-78
2022/05/11 09:24:56;;;;;;;13.05;2.10;;;19.90;92.80;;;;;;5114223;27;20063;-79
2022/05/11 09:27:28;;;;;;;16.77;2.17;;;19.80;93.20;;;;;;5113859;27;20716;-80
2022/05/11 09:30:01;;;;;;;15.65;2.25;;;19.80;93.00;;;;;;5098573;27;20047;-80
2022/05/11 09:32:35;;;;;;;7.43;1.70;;;19.70;93.10;;;;;;5111440;27;20043;-80
2022/05/11 09:35:23;;;;;;;7.93;2.10;;;19.70;93.10;;;;;;5116178;27;20368;-80
2022/05/11 09:38:07;;;;;;;16.38;2.42;;;19.70;92.00;;;;;;5134085;27;20046;-81
2022/05/11 09:40:55;;;;;;;8.05;1.60;;;19.80;92.10;;;;;;5113312;27;20054;-81
2022/05/11 09:43:41;;;;;;;9.48;2.05;;;19.90;91.50;;;;;;5099545;27;20046;-80
2022/05/11 09:46:23;;;;;;;5.57;1.27;;;19.80;92.10;;;;;;5111821;27;20495;-80
2022/05/11 09:48:57;;;;;;;8.73;1.42;;;19.70;91.00;;;;;;5113834;27;20085;-80
2022/05/11 09:51:28;;;;;;;5.35;1.50;;;19.70;91.60;;;;;;5094503;27;20356;-77
2022/05/11 09:54:05;;;;;;;51.33;3.15;;;19.70;91.00;;;;;;5111478;27;20043;-79
2022/05/11 09:56:36;;;;;;;9.90;1.70;;;19.80;91.30;;;;;;5113402;27;20074;-78
2022/05/11 09:59:40;;;;;;;5.28;1.20;;;19.80;90.60;;;;;;5113210;27;20047;-80
2022/05/11 10:02:41;;;;;;;18.80;2.17;;;19.70;89.60;;;;;;5097681;27;20039;-81
2022/05/11 10:05:13;;;;;;;13.48;1.60;;;19.70;89.40;;;;;;5130838;27;20547;-80
2022/05/11 10:07:49;;;;;;;7.97;1.10;;;19.70;90.50;;;;;;5111947;27;20118;-78
2022/05/11 10:10:16;;;;;;;;;;;19.70;89.70;;;;;;5111898;27;20039;-77
2022/05/11 10:12:43;;;;;;;11.10;1.67;;;19.60;89.20;;;;;;5095318;27;20002;-78
2022/05/11 10:24:20;;;;;;;12.27;2.00;;;19.80;90.20;;;;;;5127881;27;20142;-79
2022/05/11 10:27:24;;;;;;;7.40;1.70;;;19.80;90.20;;;;;;5110567;27;20463;-80
2022/05/11 10:30:08;;;;;;;14.18;1.73;;;19.70;90.20;;;;;;5095357;27;20046;-79
2022/05/11 10:33:16;;;;;;;6.63;1.40;;;19.60;90.90;;;;;;5093794;27;20131;-80
2022/05/11 10:36:05;;;;;;;11.50;1.85;;;19.70;91.40;;;;;;5110232;27;20051;-79
2022/05/11 10:39:12;;;;;;;7.30;1.88;;;19.70;90.60;;;;;;5094370;27;20121;-79
2022/05/11 10:41:41;;;;;;;;;;;19.70;91.00;;;;;;5083850;28;20091;-81
2022/05/11 10:44:26;;;;;;;16.30;2.33;;;19.80;91.80;;;;;;5111397;28;21274;-79
2022/05/11 10:47:02;;;;;;;12.35;2.35;;;19.80;93.10;;;;;;5112869;27;20054;-79
2022/05/11 10:49:55;;;;;;;22.88;2.53;;;19.80;92.50;;;;;;5094202;28;20042;-79
2022/05/11 10:52:41;;;;;;;25.42;2.97;;;19.80;92.90;;;;;;5094146;28;20042;-80
2022/05/11 10:55:19;;;;;;;14.15;2.60;;;19.70;92.80;;;;;;5086732;28;20051;-78
2022/05/11 10:58:06;;;;;;;12.00;2.65;;;19.70;92.70;;;;;;5111402;28;20035;-79
2022/05/11 11:00:36;;;;;;;10.15;2.30;;;19.60;93.00;;;;;;5092322;28;20046;-78
2022/05/11 11:03:13;;;;;;;17.02;2.33;;;19.60;93.20;;;;;;5110926;28;20039;-78
2022/05/11 11:07:11;;;;;;;15.20;2.28;;;19.70;93.00;;;;;;5093552;28;20035;-78
2022/05/11 11:08:50;;;;;;;23.40;2.78;;;19.70;92.70;;;;;;5108669;28;20031;-79
2022/05/11 11:11:49;;;;;;;19.88;3.20;;;19.70;92.90;;;;;;5110452;28;20047;-78
2022/05/11 11:14:23;;;;;;;16.88;2.75;;;19.70;92.90;;;;;;5098325;28;20039;-79
2022/05/11 11:16:49;;;;;;;12.70;2.28;;;19.70;92.90;;;;;;5109530;28;20046;-78
2022/05/11 11:19:15;;;;;;;9.00;2.45;;;19.70;92.80;;;;;;5078775;27;20394;-78
2022/05/11 11:21:42;;;;;;;10.85;1.98;;;19.70;92.60;;;;;;5097499;27;20043;-78
2022/05/11 11:24:14;;;;;;;9.95;1.85;;;19.70;92.80;;;;;;5098758;27;20491;-79
2022/05/11 11:26:50;;;;;;;18.42;2.83;;;19.70;92.80;;;;;;5114975;27;20045;-78
2022/05/11 11:29:19;;;;;;;11.18;2.22;;;19.70;92.60;;;;;;5115292;27;20043;-78
2022/05/11 11:32:00;;;;;;;14.60;2.17;;;19.70;93.00;;;;;;5116099;27;20043;-78
2022/05/11 11:34:46;;;;;;;10.88;2.25;;;19.80;93.30;;;;;;5115392;27;20058;-78
2022/05/11 11:37:43;;;;;;;10.93;2.50;;;19.80;92.70;;;;;;5116150;27;20047;-79
2022/05/11 11:40:21;;;;;;;16.60;2.42;;;19.80;93.10;;;;;;5096770;27;20080;-78
2022/05/11 11:42:48;;;;;;;17.27;3.05;;;19.90;93.80;;;;;;5114753;27;20112;-79
2022/05/11 11:45:26;;;;;;;36.22;3.42;;;20.00;93.50;;;;;;5097835;27;20104;-79
2022/05/11 11:48:18;;;;;;;10.18;2.55;;;20.20;92.90;;;;;;5114330;27;20154;-76
2022/05/11 11:50:53;;;;;;;7.03;2.10;;;20.20;91.20;;;;;;5132868;27;20043;-78
2022/05/11 11:53:49;;;;;;;13.47;2.80;;;20.20;91.80;;;;;;5113875;27;20142;-79
2022/05/11 11:56:24;;;;;;;23.93;2.53;;;20.30;92.30;;;;;;5117067;27;20493;-79
2022/05/11 11:59:08;;;;;;;24.47;3.07;;;20.30;92.00;;;;;;5097900;27;20131;-79
2022/05/11 12:01:45;;;;;;;10.73;2.17;;;20.40;92.10;;;;;;5114467;27;20301;-78
2022/05/11 12:04:36;;;;;;;8.65;2.22;;;20.50;91.90;;;;;;5116947;27;20054;-79
2022/05/11 12:15:31;;;;;;;15.35;2.10;;;20.70;90.60;;;;;;5101078;27;20135;-79
2022/05/11 12:17:58;;;;;;;11.23;2.17;;;20.80;90.40;;;;;;5096846;27;20043;-79
2022/05/11 12:20:25;;;;;;;19.08;2.67;;;21.00;90.10;;;;;;5113345;27;20437;-80
2022/05/11 12:22:57;;;;;;;7.70;1.98;;;21.10;90.10;;;;;;5097486;27;20039;-79
2022/05/11 12:25:30;;;;;;;11.77;2.25;;;21.10;89.20;;;;;;5115181;27;20075;-79
2022/05/11 12:27:58;;;;;;;54.15;3.90;;;21.10;88.10;;;;;;5116248;27;20067;-80
2022/05/11 12:30:39;;;;;;;20.25;2.65;;;21.20;88.00;;;;;;5097090;27;20039;-79
2022/05/11 12:33:06;;;;;;;12.95;2.55;;;21.20;87.50;;;;;;5111556;27;20066;-79
2022/05/11 12:35:36;;;;;;;11.98;2.33;;;21.20;88.00;;;;;;5114322;27;20055;-79
2022/05/11 12:38:10;;;;;;;25.23;3.42;;;21.30;88.70;;;;;;5096427;27;20031;-79
2022/05/11 12:40:42;;;;;;;27.35;3.08;;;21.50;88.80;;;;;;5112740;27;20039;-80
2022/05/11 12:43:23;;;;;;;28.65;3.05;;;21.70;89.50;;;;;;5113487;27;20074;-78
2022/05/11 12:45:50;;;;;;;35.75;3.78;;;21.90;88.60;;;;;;5098138;27;20395;-81
2022/05/11 12:48:39;;;;;;;9.95;2.00;;;21.80;87.20;;;;;;5099528;27;20054;-78
2022/05/11 12:51:14;;;;;;;12.90;2.33;;;21.70;85.10;;;;;;5103606;27;20047;-78
2022/05/11 12:53:58;;;;;;;15.23;2.58;;;21.90;86.90;;;;;;5116165;27;20035;-77
2022/05/11 12:56:32;;;;;;;13.40;2.28;;;22.50;86.90;;;;;;5114861;27;20039;-79
2022/05/11 12:59:01;;;;;;;22.45;2.97;;;22.80;88.30;;;;;;5115772;27;20043;-79
2022/05/11 13:01:29;;;;;;;13.23;2.42;;;22.90;85.40;;;;;;5115311;27;20062;-79
2022/05/11 13:04:01;;;;;;;16.98;3.20;;;23.20;84.10;;;;;;5098345;27;20825;-79
2022/05/11 13:06:38;;;;;;;16.40;3.03;;;23.40;84.10;;;;;;5114134;27;20043;-80
2022/05/11 13:09:16;;;;;;;27.58;3.30;;;23.40;82.60;;;;;;5132767;27;20050;-80
2022/05/11 13:11:42;;;;;;;12.00;2.40;;;23.60;82.60;;;;;;5130762;27;20042;-80
2022/05/11 13:14:16;;;;;;;11.40;2.08;;;23.60;81.40;;;;;;5115804;27;20071;-81
2022/05/11 13:16:48;;;;;;;84.75;5.93;;;23.60;80.90;;;;;;5111928;27;20414;-80
2022/05/11 13:19:30;;;;;;;26.05;3.17;;;24.00;81.10;;;;;;5113535;27;20064;-78
2022/05/11 13:22:00;;;;;;;8.07;2.28;;;24.30;79.30;;;;;;5114629;27;20035;-80
2022/05/11 13:24:54;;;;;;;21.23;2.80;;;24.60;80.00;;;;;;5108615;28;20051;-77
2022/05/11 13:27:33;;;;;;;18.55;3.03;;;24.70;80.00;;;;;;5109182;28;20184;-79
2022/05/11 13:30:07;;;;;;;10.98;2.83;;;24.80;76.80;;;;;;5109191;28;20039;-78
2022/05/11 13:33:00;;;;;;;7.82;2.47;;;24.90;77.50;;;;;;5110103;28;20103;-79
2022/05/11 13:35:31;;;;;;;12.05;2.83;;;25.00;77.60;;;;;;5107542;28;20150;-79
2022/05/11 13:37:59;;;;;;;12.52;3.45;;;25.20;78.10;;;;;;5111253;28;20042;-80
2022/05/11 13:40:26;;;;;;;11.52;2.90;;;25.30;78.00;;;;;;5110355;28;20043;-79
2022/05/11 13:42:52;;;;;;;14.70;3.10;;;25.40;77.40;;;;;;5091916;28;20047;-80
2022/05/11 13:45:21;;;;;;;11.40;2.15;;;25.40;76.90;;;;;;5109128;28;20085;-80